SXI2614 UTDD-LDRI
Flight info
| Callsign | SXI2614 |
|---|---|
| Flight time | N/A |
| Altitude | 38000 |
| Route | SOPNO MANAT R226 AKRAM A477BABUM B701 KRS A480 DUKAN 7850 ADEKI N644 BADIR DCT NOLGA UN61 TBN UM71 CRM UM688 EKSUK UL852 NEGEM DCT UPAMA ANASA TUVAR PIXAL KULEN |
| Aircraft | A319/M-L/6412 |
Departure
| Time | 2026-04-30 09:44 |
|---|---|
| Airport | Dushanbe International Airport (UTDD) |
Arrival
| Time | N/A |
|---|---|
| Airport | Rijeka Airport (LDRI) |
| Time | Latitude | Longitude | Altitude | Speed | Heading |
|---|---|---|---|---|---|
| 2026-04-30 09:28 | 38.54760 | 68.81166 | 2586 ft | 0 kts | 359° |
| 2026-04-30 09:35 | 38.54754 | 68.81166 | 2586 ft | 2 kts | 359° |
| 2026-04-30 09:35 | 38.54737 | 68.81166 | 2586 ft | 3 kts | 359° |
| 2026-04-30 09:35 | 38.54717 | 68.81167 | 2586 ft | 3 kts | 359° |
| 2026-04-30 09:35 | 38.54705 | 68.81167 | 2586 ft | 2 kts | 359° |
| 2026-04-30 09:36 | 38.54689 | 68.81160 | 2586 ft | 3 kts | 41° |
| 2026-04-30 09:36 | 38.54680 | 68.81138 | 2586 ft | 3 kts | 86° |
| 2026-04-30 09:36 | 38.54680 | 68.81112 | 2586 ft | 3 kts | 89° |
| 2026-04-30 09:36 | 38.54679 | 68.81086 | 2586 ft | 3 kts | 89° |
| 2026-04-30 09:37 | 38.54679 | 68.81070 | 2586 ft | 0 kts | 89° |
| 2026-04-30 09:38 | 38.54679 | 68.81071 | 2586 ft | 0 kts | 89° |
| 2026-04-30 09:39 | 38.54679 | 68.81072 | 2586 ft | 0 kts | 89° |
| 2026-04-30 09:39 | 38.54674 | 68.81094 | 2586 ft | 5 kts | 111° |
| 2026-04-30 09:39 | 38.54663 | 68.81141 | 2586 ft | 6 kts | 94° |
| 2026-04-30 09:39 | 38.54658 | 68.81205 | 2586 ft | 8 kts | 115° |
| 2026-04-30 09:40 | 38.54610 | 68.81225 | 2586 ft | 8 kts | 178° |
| 2026-04-30 09:40 | 38.54549 | 68.81226 | 2586 ft | 9 kts | 179° |
| 2026-04-30 09:40 | 38.54480 | 68.81226 | 2586 ft | 10 kts | 180° |
| 2026-04-30 09:40 | 38.54444 | 68.81226 | 2586 ft | 0 kts | 180° |
| 2026-04-30 09:41 | 38.54443 | 68.81226 | 2586 ft | 0 kts | 180° |
| 2026-04-30 09:42 | 38.54435 | 68.81226 | 2586 ft | 2 kts | 180° |
| 2026-04-30 09:42 | 38.54408 | 68.81225 | 2586 ft | 6 kts | 180° |
| 2026-04-30 09:42 | 38.54363 | 68.81225 | 2586 ft | 7 kts | 180° |
| 2026-04-30 09:43 | 38.54338 | 68.81261 | 2586 ft | 6 kts | 107° |
| 2026-04-30 09:43 | 38.54335 | 68.81283 | 2586 ft | 0 kts | 90° |
| 2026-04-30 09:43 | 38.54335 | 68.81292 | 2586 ft | 4 kts | 90° |
| 2026-04-30 09:43 | 38.54334 | 68.81586 | 2586 ft | 69 kts | 90° |
| 2026-04-30 09:44 | 38.54332 | 68.82449 | 2586 ft | 104 kts | 90° |
| 2026-04-30 09:44 | 38.54329 | 68.83603 | 2646 ft | 151 kts | 90° |
| 2026-04-30 09:44 | 38.54301 | 68.84933 | 3357 ft | 151 kts | 93° |
| 2026-04-30 09:44 | 38.54222 | 68.86365 | 3830 ft | 171 kts | 95° |
| 2026-04-30 09:45 | 38.54144 | 68.87935 | 4256 ft | 182 kts | 94° |
| 2026-04-30 09:45 | 38.54057 | 68.89604 | 4693 ft | 194 kts | 95° |
| 2026-04-30 09:45 | 38.53960 | 68.91367 | 5120 ft | 205 kts | 94° |
| 2026-04-30 09:45 | 38.53810 | 68.93274 | 5431 ft | 227 kts | 102° |
| 2026-04-30 09:46 | 38.53045 | 68.95109 | 5839 ft | 245 kts | 132° |
| 2026-04-30 09:46 | 38.51584 | 68.96292 | 6254 ft | 255 kts | 161° |
| 2026-04-30 09:46 | 38.49847 | 68.96612 | 6676 ft | 257 kts | 178° |
| 2026-04-30 09:46 | 38.48051 | 68.96562 | 7082 ft | 258 kts | 182° |
| 2026-04-30 09:47 | 38.46251 | 68.96395 | 7483 ft | 260 kts | 184° |
| 2026-04-30 09:47 | 38.44447 | 68.96194 | 8019 ft | 261 kts | 185° |
| 2026-04-30 09:47 | 38.42628 | 68.95981 | 8596 ft | 263 kts | 185° |
| 2026-04-30 09:47 | 38.40823 | 68.95561 | 9154 ft | 267 kts | 201° |
| 2026-04-30 09:48 | 38.39312 | 68.94209 | 9734 ft | 268 kts | 229° |
| 2026-04-30 09:48 | 38.38403 | 68.92114 | 9976 ft | 273 kts | 253° |
| 2026-04-30 09:48 | 38.38196 | 68.89726 | 10005 ft | 272 kts | 273° |
| 2026-04-30 09:48 | 38.38520 | 68.87383 | 10233 ft | 275 kts | 285° |
| 2026-04-30 09:49 | 38.39135 | 68.84992 | 10604 ft | 290 kts | 290° |
| 2026-04-30 09:49 | 38.39892 | 68.82575 | 10960 ft | 295 kts | 292° |
| 2026-04-30 09:49 | 38.40703 | 68.80155 | 11312 ft | 298 kts | 293° |
| 2026-04-30 09:49 | 38.41522 | 68.77726 | 11662 ft | 299 kts | 293° |
| 2026-04-30 09:50 | 38.42358 | 68.75226 | 12025 ft | 310 kts | 292° |
| 2026-04-30 09:50 | 38.43191 | 68.72669 | 12485 ft | 316 kts | 292° |
| 2026-04-30 09:50 | 38.44028 | 68.70069 | 13038 ft | 325 kts | 291° |
| 2026-04-30 09:50 | 38.44877 | 68.67371 | 13593 ft | 329 kts | 291° |
| 2026-04-30 09:51 | 38.45727 | 68.64636 | 14147 ft | 332 kts | 291° |
| 2026-04-30 09:51 | 38.46480 | 68.61846 | 14699 ft | 333 kts | 285° |
| 2026-04-30 09:51 | 38.47009 | 68.58959 | 15254 ft | 336 kts | 280° |
| 2026-04-30 09:51 | 38.47422 | 68.55995 | 15819 ft | 341 kts | 278° |
| 2026-04-30 09:52 | 38.47787 | 68.52992 | 16373 ft | 344 kts | 277° |
| 2026-04-30 09:52 | 38.48143 | 68.49962 | 16928 ft | 348 kts | 277° |
| 2026-04-30 09:52 | 38.48514 | 68.46925 | 17516 ft | 353 kts | 278° |
| 2026-04-30 09:52 | 38.48921 | 68.43778 | 18174 ft | 357 kts | 278° |
| 2026-04-30 09:53 | 38.49342 | 68.40684 | 18819 ft | 360 kts | 279° |
| 2026-04-30 09:53 | 38.49791 | 68.37518 | 19469 ft | 364 kts | 279° |
| 2026-04-30 09:53 | 38.50254 | 68.34308 | 20049 ft | 370 kts | 279° |
| 2026-04-30 09:53 | 38.50731 | 68.31057 | 20606 ft | 375 kts | 279° |
| 2026-04-30 09:54 | 38.51220 | 68.27768 | 21159 ft | 380 kts | 279° |
| 2026-04-30 09:54 | 38.51723 | 68.24433 | 21713 ft | 385 kts | 279° |
| 2026-04-30 09:54 | 38.52241 | 68.21049 | 22267 ft | 389 kts | 279° |
| 2026-04-30 09:54 | 38.52752 | 68.17641 | 22820 ft | 393 kts | 279° |
| 2026-04-30 09:55 | 38.53087 | 68.15354 | 23187 ft | 395 kts | 279° |
| 2026-04-30 09:55 | 38.53590 | 68.11894 | 23739 ft | 398 kts | 279° |
| 2026-04-30 09:55 | 38.54114 | 68.08407 | 24291 ft | 401 kts | 279° |
| 2026-04-30 09:55 | 38.54592 | 68.04884 | 24844 ft | 402 kts | 276° |
| 2026-04-30 09:56 | 38.54891 | 68.01323 | 25400 ft | 403 kts | 273° |
| 2026-04-30 09:56 | 38.55060 | 67.97746 | 25956 ft | 403 kts | 271° |
| 2026-04-30 09:56 | 38.55155 | 67.94168 | 26510 ft | 404 kts | 270° |
| 2026-04-30 09:56 | 38.55234 | 67.90577 | 27062 ft | 404 kts | 270° |
| 2026-04-30 09:57 | 38.55317 | 67.87029 | 27608 ft | 403 kts | 270° |
| 2026-04-30 09:57 | 38.55425 | 67.83454 | 28158 ft | 402 kts | 270° |
| 2026-04-30 09:57 | 38.55548 | 67.79899 | 28707 ft | 399 kts | 271° |
| 2026-04-30 09:57 | 38.55695 | 67.76371 | 29256 ft | 396 kts | 271° |
| 2026-04-30 09:58 | 38.55849 | 67.72872 | 29791 ft | 392 kts | 272° |
| 2026-04-30 09:58 | 38.56001 | 67.69427 | 30473 ft | 382 kts | 271° |
| 2026-04-30 09:58 | 38.56150 | 67.66058 | 31036 ft | 378 kts | 271° |
| 2026-04-30 09:58 | 38.56297 | 67.62722 | 31606 ft | 374 kts | 271° |
| 2026-04-30 09:59 | 38.56595 | 67.56164 | 32749 ft | 365 kts | 271° |
| 2026-04-30 09:59 | 38.56900 | 67.49813 | 33862 ft | 354 kts | 271° |
| 2026-04-30 10:00 | 38.57216 | 67.43561 | 34631 ft | 352 kts | 271° |
| 2026-04-30 10:00 | 38.57373 | 67.40438 | 34869 ft | 354 kts | 270° |
| 2026-04-30 10:01 | 38.57674 | 67.34093 | 35161 ft | 362 kts | 271° |
| 2026-04-30 10:01 | 38.57835 | 67.30850 | 35291 ft | 366 kts | 271° |
| 2026-04-30 10:01 | 38.57993 | 67.27589 | 35419 ft | 370 kts | 271° |
| 2026-04-30 10:02 | 38.58322 | 67.20958 | 35675 ft | 377 kts | 271° |
| 2026-04-30 10:02 | 38.58488 | 67.17598 | 35803 ft | 380 kts | 271° |
| 2026-04-30 10:02 | 38.58647 | 67.14213 | 35974 ft | 382 kts | 270° |
| 2026-04-30 10:02 | 38.58782 | 67.10876 | 36297 ft | 379 kts | 270° |
| 2026-04-30 10:03 | 38.58912 | 67.07529 | 36661 ft | 375 kts | 270° |
| 2026-04-30 10:03 | 38.59035 | 67.04210 | 37012 ft | 372 kts | 270° |
| 2026-04-30 10:03 | 38.59152 | 67.00913 | 37302 ft | 370 kts | 270° |
| 2026-04-30 10:03 | 38.59264 | 66.97635 | 37578 ft | 368 kts | 270° |
| 2026-04-30 10:04 | 38.59376 | 66.94333 | 37852 ft | 366 kts | 270° |
| 2026-04-30 10:04 | 38.59497 | 66.91122 | 38013 ft | 367 kts | 270° |
| 2026-04-30 10:04 | 38.59621 | 66.87844 | 38087 ft | 370 kts | 270° |
| 2026-04-30 10:05 | 38.59862 | 66.81241 | 38101 ft | 372 kts | 270° |
| 2026-04-30 10:05 | 38.60108 | 66.74644 | 38099 ft | 371 kts | 270° |
| 2026-04-30 10:06 | 38.60356 | 66.68083 | 38099 ft | 371 kts | 270° |
| 2026-04-30 10:06 | 38.60609 | 66.61482 | 38097 ft | 371 kts | 270° |
| 2026-04-30 10:07 | 38.60866 | 66.54891 | 38096 ft | 371 kts | 270° |
| 2026-04-30 10:07 | 38.61126 | 66.48294 | 38093 ft | 371 kts | 270° |
| 2026-04-30 10:08 | 38.61395 | 66.41663 | 38093 ft | 375 kts | 270° |
| 2026-04-30 10:08 | 38.61676 | 66.35045 | 38092 ft | 375 kts | 270° |
| 2026-04-30 10:09 | 38.61960 | 66.28391 | 38089 ft | 375 kts | 270° |
| 2026-04-30 10:09 | 38.62423 | 66.21750 | 38087 ft | 377 kts | 276° |
| 2026-04-30 10:10 | 38.63689 | 66.15188 | 38089 ft | 381 kts | 281° |
| 2026-04-30 10:10 | 38.65264 | 66.08709 | 38087 ft | 382 kts | 282° |
| 2026-04-30 10:11 | 38.66834 | 66.02249 | 38084 ft | 382 kts | 282° |
| 2026-04-30 10:11 | 38.68336 | 65.95732 | 38082 ft | 382 kts | 281° |
| 2026-04-30 10:12 | 38.69809 | 65.89207 | 38082 ft | 382 kts | 281° |
| 2026-04-30 10:12 | 38.71279 | 65.82660 | 38082 ft | 381 kts | 281° |
| 2026-04-30 10:13 | 38.72734 | 65.76172 | 38082 ft | 381 kts | 281° |
| 2026-04-30 10:13 | 38.74200 | 65.69634 | 38082 ft | 381 kts | 281° |
| 2026-04-30 10:14 | 38.75670 | 65.63082 | 38082 ft | 381 kts | 281° |
| 2026-04-30 10:14 | 38.77863 | 65.53317 | 38082 ft | 382 kts | 281° |
| 2026-04-30 10:15 | 38.79333 | 65.46774 | 38082 ft | 382 kts | 281° |
| 2026-04-30 10:15 | 38.80804 | 65.40227 | 38082 ft | 382 kts | 281° |
| 2026-04-30 10:16 | 38.82274 | 65.33695 | 38083 ft | 382 kts | 281° |
| 2026-04-30 10:17 | 38.84462 | 65.23910 | 38082 ft | 381 kts | 281° |
| 2026-04-30 10:17 | 38.86543 | 65.14070 | 38088 ft | 380 kts | 280° |
| 2026-04-30 10:18 | 38.87918 | 65.07513 | 38095 ft | 380 kts | 280° |
| 2026-04-30 10:19 | 38.90007 | 64.97682 | 38096 ft | 380 kts | 280° |
| 2026-04-30 10:19 | 38.91412 | 64.91127 | 38099 ft | 380 kts | 280° |
| 2026-04-30 10:20 | 38.92811 | 64.84620 | 38108 ft | 381 kts | 281° |
| 2026-04-30 10:20 | 38.94933 | 64.74785 | 38105 ft | 380 kts | 281° |
| 2026-04-30 10:21 | 38.96355 | 64.68204 | 38100 ft | 386 kts | 281° |
| 2026-04-30 10:21 | 38.97803 | 64.61496 | 38119 ft | 391 kts | 281° |
| 2026-04-30 10:22 | 38.99277 | 64.54742 | 38120 ft | 392 kts | 281° |
| 2026-04-30 10:22 | 39.00742 | 64.48019 | 38119 ft | 392 kts | 281° |
| 2026-04-30 10:23 | 39.02220 | 64.41266 | 38130 ft | 392 kts | 281° |
| 2026-04-30 10:23 | 39.03699 | 64.34509 | 38144 ft | 392 kts | 281° |
| 2026-04-30 10:24 | 39.05129 | 64.27780 | 38146 ft | 392 kts | 280° |
| 2026-04-30 10:24 | 39.06544 | 64.21005 | 38149 ft | 392 kts | 280° |
| 2026-04-30 10:25 | 39.07927 | 64.14222 | 38158 ft | 392 kts | 280° |
| 2026-04-30 10:25 | 39.09403 | 64.07441 | 38160 ft | 393 kts | 281° |
| 2026-04-30 10:26 | 39.10922 | 64.00733 | 38160 ft | 393 kts | 281° |
| 2026-04-30 10:26 | 39.12463 | 63.93984 | 38162 ft | 393 kts | 281° |
| 2026-04-30 10:27 | 39.14011 | 63.87224 | 38165 ft | 393 kts | 281° |
| 2026-04-30 10:27 | 39.15551 | 63.80476 | 38165 ft | 393 kts | 281° |
| 2026-04-30 10:28 | 39.17070 | 63.73713 | 38166 ft | 393 kts | 281° |
| 2026-04-30 10:28 | 39.18595 | 63.66952 | 38168 ft | 393 kts | 281° |
| 2026-04-30 10:29 | 39.20115 | 63.60231 | 38169 ft | 393 kts | 281° |
| 2026-04-30 10:29 | 39.21650 | 63.53466 | 38168 ft | 393 kts | 281° |
| 2026-04-30 10:30 | 39.23189 | 63.46697 | 38164 ft | 393 kts | 281° |
| 2026-04-30 10:30 | 39.24723 | 63.39966 | 38162 ft | 393 kts | 281° |
| 2026-04-30 10:31 | 39.26266 | 63.33214 | 38166 ft | 393 kts | 281° |
| 2026-04-30 10:31 | 39.27811 | 63.26430 | 38166 ft | 393 kts | 281° |
| 2026-04-30 10:32 | 39.29297 | 63.19645 | 38162 ft | 392 kts | 281° |
| 2026-04-30 10:32 | 39.30752 | 63.12896 | 38164 ft | 392 kts | 281° |
| 2026-04-30 10:33 | 39.32211 | 63.06093 | 38166 ft | 392 kts | 280° |
| 2026-04-30 10:33 | 39.33665 | 62.99312 | 38167 ft | 392 kts | 280° |
| 2026-04-30 10:34 | 39.35123 | 62.92514 | 38167 ft | 392 kts | 280° |
| 2026-04-30 10:34 | 39.36580 | 62.85719 | 38181 ft | 392 kts | 281° |
| 2026-04-30 10:35 | 39.38041 | 62.78911 | 38168 ft | 392 kts | 281° |
| 2026-04-30 10:35 | 39.39494 | 62.72148 | 38137 ft | 392 kts | 281° |
| 2026-04-30 10:36 | 39.40964 | 62.65355 | 38147 ft | 392 kts | 281° |
| 2026-04-30 10:36 | 39.42443 | 62.58561 | 38156 ft | 392 kts | 281° |
| 2026-04-30 10:37 | 39.43925 | 62.51770 | 38165 ft | 392 kts | 281° |
| 2026-04-30 10:37 | 39.45413 | 62.44971 | 38169 ft | 392 kts | 281° |
| 2026-04-30 10:38 | 39.46905 | 62.38170 | 38173 ft | 392 kts | 281° |
| 2026-04-30 10:38 | 39.48400 | 62.31419 | 38172 ft | 392 kts | 281° |
| 2026-04-30 10:39 | 39.49905 | 62.24620 | 38176 ft | 392 kts | 280° |
| 2026-04-30 10:39 | 39.51328 | 62.17769 | 38177 ft | 396 kts | 282° |
| 2026-04-30 10:40 | 39.52744 | 62.10790 | 38186 ft | 406 kts | 282° |
| 2026-04-30 10:40 | 39.54209 | 62.03699 | 38190 ft | 406 kts | 282° |
| 2026-04-30 10:41 | 39.55662 | 61.96627 | 38194 ft | 406 kts | 282° |
| 2026-04-30 10:41 | 39.56875 | 61.90746 | 38199 ft | 406 kts | 282° |
| 2026-04-30 10:42 | 39.58578 | 61.82512 | 38213 ft | 406 kts | 282° |
| 2026-04-30 10:42 | 39.59800 | 61.76624 | 38217 ft | 406 kts | 282° |
| 2026-04-30 10:43 | 39.61273 | 61.69544 | 38216 ft | 406 kts | 282° |
| 2026-04-30 10:43 | 39.62752 | 61.62458 | 38220 ft | 406 kts | 282° |
| 2026-04-30 10:44 | 39.64232 | 61.55382 | 38231 ft | 406 kts | 283° |
| 2026-04-30 10:44 | 39.65716 | 61.48312 | 38229 ft | 406 kts | 283° |
| 2026-04-30 10:45 | 39.67202 | 61.41236 | 38229 ft | 406 kts | 282° |
| 2026-04-30 10:45 | 39.68635 | 61.34186 | 38246 ft | 406 kts | 282° |
| 2026-04-30 10:46 | 39.70037 | 61.27081 | 38252 ft | 406 kts | 282° |
| 2026-04-30 10:46 | 39.71431 | 61.19975 | 38254 ft | 406 kts | 282° |
| 2026-04-30 10:47 | 39.72823 | 61.12867 | 38255 ft | 406 kts | 282° |
| 2026-04-30 10:47 | 39.74215 | 61.05761 | 38255 ft | 406 kts | 282° |
| 2026-04-30 10:48 | 39.75611 | 60.98639 | 38255 ft | 406 kts | 282° |
| 2026-04-30 10:48 | 39.76997 | 60.91571 | 38256 ft | 406 kts | 282° |
| 2026-04-30 10:49 | 39.78392 | 60.84456 | 38257 ft | 406 kts | 282° |
| 2026-04-30 10:49 | 39.79804 | 60.77350 | 38257 ft | 406 kts | 282° |
| 2026-04-30 10:50 | 39.81224 | 60.70221 | 38257 ft | 406 kts | 282° |
| 2026-04-30 10:50 | 39.82645 | 60.63110 | 38258 ft | 406 kts | 282° |
| 2026-04-30 10:51 | 39.84065 | 60.56031 | 38259 ft | 406 kts | 282° |
| 2026-04-30 10:51 | 39.85494 | 60.48921 | 38259 ft | 406 kts | 282° |
| 2026-04-30 10:52 | 39.86938 | 60.41820 | 38262 ft | 406 kts | 282° |
| 2026-04-30 10:52 | 39.88372 | 60.34706 | 38264 ft | 406 kts | 282° |
| 2026-04-30 10:53 | 39.89649 | 60.27602 | 38265 ft | 404 kts | 277° |
| 2026-04-30 10:53 | 39.90040 | 60.20332 | 38272 ft | 402 kts | 269° |
| 2026-04-30 10:54 | 39.89885 | 60.13045 | 38278 ft | 402 kts | 266° |
| 2026-04-30 10:54 | 39.89708 | 60.05805 | 38278 ft | 397 kts | 269° |
| 2026-04-30 10:55 | 39.89658 | 59.98587 | 38283 ft | 398 kts | 270° |
| 2026-04-30 10:55 | 39.89700 | 59.91436 | 38306 ft | 398 kts | 271° |
| 2026-04-30 10:56 | 39.89769 | 59.84218 | 38313 ft | 398 kts | 271° |
| 2026-04-30 10:56 | 39.89845 | 59.77018 | 38315 ft | 398 kts | 271° |
| 2026-04-30 10:57 | 39.89899 | 59.69805 | 38325 ft | 398 kts | 271° |
| 2026-04-30 10:57 | 39.89961 | 59.62634 | 38329 ft | 398 kts | 271° |
| 2026-04-30 10:58 | 39.90027 | 59.55422 | 38330 ft | 398 kts | 271° |
| 2026-04-30 10:58 | 39.90097 | 59.48219 | 38335 ft | 397 kts | 271° |
| 2026-04-30 10:59 | 39.90160 | 59.41014 | 38338 ft | 398 kts | 270° |
| 2026-04-30 10:59 | 39.90166 | 59.33852 | 38338 ft | 398 kts | 270° |
| 2026-04-30 11:00 | 39.90150 | 59.26653 | 38341 ft | 398 kts | 270° |
| 2026-04-30 11:00 | 39.90134 | 59.19451 | 38345 ft | 398 kts | 270° |
| 2026-04-30 11:01 | 39.90151 | 59.12246 | 38344 ft | 398 kts | 270° |
| 2026-04-30 11:01 | 39.90170 | 59.05039 | 38345 ft | 398 kts | 270° |
| 2026-04-30 11:02 | 39.90143 | 58.97843 | 38345 ft | 398 kts | 269° |
| 2026-04-30 11:02 | 39.90064 | 58.90677 | 38346 ft | 398 kts | 270° |
| 2026-04-30 11:03 | 39.90007 | 58.83451 | 38346 ft | 398 kts | 269° |
| 2026-04-30 11:04 | 39.89924 | 58.72648 | 38342 ft | 398 kts | 270° |
| 2026-04-30 11:04 | 39.89875 | 58.65443 | 38344 ft | 398 kts | 270° |
| 2026-04-30 11:05 | 39.89830 | 58.58237 | 38344 ft | 398 kts | 270° |
| 2026-04-30 11:05 | 39.89790 | 58.51084 | 38343 ft | 398 kts | 270° |
| 2026-04-30 11:06 | 39.89754 | 58.43875 | 38343 ft | 398 kts | 270° |
| 2026-04-30 11:06 | 39.89722 | 58.36665 | 38342 ft | 398 kts | 270° |
| 2026-04-30 11:07 | 39.89695 | 58.29454 | 38341 ft | 398 kts | 270° |
| 2026-04-30 11:07 | 39.89671 | 58.22251 | 38341 ft | 398 kts | 270° |
| 2026-04-30 11:08 | 39.89638 | 58.15029 | 38340 ft | 398 kts | 269° |
| 2026-04-30 11:08 | 39.89547 | 58.07822 | 38339 ft | 398 kts | 269° |
| 2026-04-30 11:09 | 39.89465 | 58.00663 | 38338 ft | 398 kts | 269° |
| 2026-04-30 11:09 | 39.89385 | 57.93448 | 38337 ft | 398 kts | 269° |
| 2026-04-30 11:10 | 39.89313 | 57.86235 | 38336 ft | 398 kts | 269° |
| 2026-04-30 11:10 | 39.89211 | 57.79040 | 38335 ft | 398 kts | 269° |
| 2026-04-30 11:11 | 39.89095 | 57.71845 | 38334 ft | 398 kts | 269° |
| 2026-04-30 11:11 | 39.88975 | 57.64642 | 38334 ft | 398 kts | 269° |
| 2026-04-30 11:12 | 39.88854 | 57.57488 | 38332 ft | 397 kts | 269° |
| 2026-04-30 11:12 | 39.88733 | 57.50283 | 38331 ft | 398 kts | 269° |
| 2026-04-30 11:13 | 39.88618 | 57.43172 | 38330 ft | 381 kts | 270° |
| 2026-04-30 11:13 | 39.88528 | 57.36268 | 38329 ft | 382 kts | 270° |
| 2026-04-30 11:14 | 39.88448 | 57.29373 | 38328 ft | 383 kts | 270° |
| 2026-04-30 11:14 | 39.88370 | 57.22451 | 38328 ft | 383 kts | 270° |
| 2026-04-30 11:15 | 39.88281 | 57.15514 | 38326 ft | 382 kts | 270° |
| 2026-04-30 11:15 | 39.88198 | 57.08595 | 38325 ft | 382 kts | 270° |
| 2026-04-30 11:16 | 39.88118 | 57.01661 | 38325 ft | 382 kts | 270° |
| 2026-04-30 11:16 | 39.88028 | 56.94773 | 38325 ft | 382 kts | 269° |
| 2026-04-30 11:17 | 39.87883 | 56.87858 | 38322 ft | 382 kts | 269° |
| 2026-04-30 11:17 | 39.87718 | 56.80935 | 38322 ft | 382 kts | 269° |
| 2026-04-30 11:18 | 39.87556 | 56.74012 | 38322 ft | 382 kts | 269° |
| 2026-04-30 11:18 | 39.87322 | 56.63639 | 38319 ft | 382 kts | 269° |
| 2026-04-30 11:19 | 39.87172 | 56.56750 | 38319 ft | 382 kts | 269° |
| 2026-04-30 11:19 | 39.87025 | 56.49829 | 38319 ft | 382 kts | 269° |
| 2026-04-30 11:20 | 39.86883 | 56.42913 | 38318 ft | 382 kts | 269° |
| 2026-04-30 11:20 | 39.86745 | 56.36037 | 38317 ft | 382 kts | 269° |
| 2026-04-30 11:21 | 39.86610 | 56.29121 | 38317 ft | 382 kts | 269° |
| 2026-04-30 11:21 | 39.86481 | 56.22203 | 38317 ft | 382 kts | 269° |
| 2026-04-30 11:22 | 39.86324 | 56.15291 | 38317 ft | 382 kts | 269° |
| 2026-04-30 11:22 | 39.86127 | 56.08374 | 38317 ft | 382 kts | 269° |
| 2026-04-30 11:23 | 39.85920 | 56.01507 | 38317 ft | 382 kts | 269° |
| 2026-04-30 11:24 | 39.85616 | 55.91138 | 38317 ft | 382 kts | 269° |
| 2026-04-30 11:24 | 39.85419 | 55.84238 | 38317 ft | 382 kts | 269° |
| 2026-04-30 11:25 | 39.85131 | 55.73871 | 38316 ft | 382 kts | 269° |
| 2026-04-30 11:26 | 39.84761 | 55.60053 | 38317 ft | 382 kts | 269° |
| 2026-04-30 11:26 | 39.84583 | 55.53147 | 38316 ft | 382 kts | 269° |
| 2026-04-30 11:27 | 39.84406 | 55.46276 | 38314 ft | 382 kts | 269° |
| 2026-04-30 11:27 | 39.84230 | 55.39357 | 38315 ft | 382 kts | 269° |
| 2026-04-30 11:28 | 39.83961 | 55.29026 | 38313 ft | 382 kts | 269° |
| 2026-04-30 11:29 | 39.83731 | 55.22100 | 38311 ft | 382 kts | 269° |
| 2026-04-30 11:29 | 39.83397 | 55.11745 | 38311 ft | 382 kts | 269° |
| 2026-04-30 11:30 | 39.83066 | 55.01411 | 38306 ft | 382 kts | 269° |
| 2026-04-30 11:31 | 39.82879 | 54.94495 | 38305 ft | 382 kts | 269° |
| 2026-04-30 11:31 | 39.82692 | 54.87581 | 38305 ft | 382 kts | 269° |
| 2026-04-30 11:32 | 39.82483 | 54.80711 | 38302 ft | 381 kts | 267° |
| 2026-04-30 11:32 | 39.82705 | 54.73836 | 38301 ft | 382 kts | 277° |
| 2026-04-30 11:33 | 39.84449 | 54.64878 | 38301 ft | 384 kts | 284° |
| 2026-04-30 11:33 | 39.86054 | 54.58234 | 38298 ft | 384 kts | 284° |
| 2026-04-30 11:34 | 39.87596 | 54.51565 | 38295 ft | 384 kts | 283° |
| 2026-04-30 11:34 | 39.89046 | 54.44867 | 38295 ft | 384 kts | 282° |
| 2026-04-30 11:35 | 39.90153 | 54.38092 | 38296 ft | 382 kts | 278° |
| 2026-04-30 11:35 | 39.91005 | 54.31288 | 38290 ft | 382 kts | 277° |
| 2026-04-30 11:36 | 39.91839 | 54.24447 | 38290 ft | 382 kts | 277° |
| 2026-04-30 11:36 | 39.92728 | 54.17608 | 38290 ft | 383 kts | 278° |
| 2026-04-30 11:37 | 39.93650 | 54.10770 | 38289 ft | 383 kts | 278° |
| 2026-04-30 11:37 | 39.94580 | 54.03944 | 38288 ft | 383 kts | 278° |
| 2026-04-30 11:38 | 39.95512 | 53.97119 | 38289 ft | 383 kts | 278° |
| 2026-04-30 11:38 | 39.96448 | 53.90282 | 38288 ft | 383 kts | 278° |
| 2026-04-30 11:39 | 39.97377 | 53.83490 | 38288 ft | 383 kts | 278° |
| 2026-04-30 11:39 | 39.98314 | 53.76650 | 38288 ft | 383 kts | 278° |
| 2026-04-30 11:40 | 39.99245 | 53.69856 | 38288 ft | 383 kts | 278° |
| 2026-04-30 11:40 | 40.00183 | 53.63013 | 38288 ft | 383 kts | 278° |
| 2026-04-30 11:41 | 40.01120 | 53.56183 | 38288 ft | 383 kts | 278° |
| 2026-04-30 11:41 | 40.02076 | 53.49346 | 38288 ft | 383 kts | 279° |
| 2026-04-30 11:42 | 40.03029 | 53.42517 | 38288 ft | 381 kts | 277° |
| 2026-04-30 11:42 | 40.03915 | 53.35691 | 38288 ft | 381 kts | 277° |
| 2026-04-30 11:43 | 40.04780 | 53.28910 | 38288 ft | 381 kts | 277° |
| 2026-04-30 11:43 | 40.05647 | 53.22088 | 38288 ft | 381 kts | 277° |
| 2026-04-30 11:44 | 40.06513 | 53.15267 | 38288 ft | 381 kts | 277° |
| 2026-04-30 11:44 | 40.07385 | 53.08474 | 38288 ft | 381 kts | 277° |
| 2026-04-30 11:45 | 40.08301 | 53.01644 | 38288 ft | 381 kts | 277° |
| 2026-04-30 11:45 | 40.08622 | 52.94785 | 38290 ft | 379 kts | 267° |
| 2026-04-30 11:46 | 40.08191 | 52.87915 | 38289 ft | 379 kts | 263° |
| 2026-04-30 11:46 | 40.07596 | 52.81124 | 38288 ft | 379 kts | 264° |
| 2026-04-30 11:47 | 40.07076 | 52.74270 | 38288 ft | 379 kts | 265° |
| 2026-04-30 11:47 | 40.06645 | 52.67412 | 38288 ft | 379 kts | 265° |
| 2026-04-30 11:48 | 40.06270 | 52.60546 | 38288 ft | 379 kts | 265° |
| 2026-04-30 11:48 | 40.05892 | 52.53674 | 38288 ft | 379 kts | 265° |
| 2026-04-30 11:49 | 40.05521 | 52.46856 | 38277 ft | 379 kts | 265° |
| 2026-04-30 11:49 | 40.05151 | 52.39977 | 38262 ft | 379 kts | 265° |
| 2026-04-30 11:50 | 40.04786 | 52.33110 | 38260 ft | 379 kts | 265° |
| 2026-04-30 11:50 | 40.04425 | 52.26246 | 38259 ft | 379 kts | 266° |
| 2026-04-30 11:51 | 40.04070 | 52.19420 | 38258 ft | 379 kts | 266° |